CheckWX is a tool to help pilots better visualize weather data.  It is not intended as a substitute for an official pre-flight weather briefing.

08:33:14 UTC

KHLX METAR
Twin County Airport
Galax Hillsville, Virginia, USA
Current

18 mins ago

KHLX 030815Z AUTO 32008KT 10SM CLR 06/M01 A2997 RMK AO2 T00601008
Observed
Apr-3 @ 08:15 UTC
Wind
  • 320° at 8 KTS
Visibility
Flight Rules
VFR
Cloud Levels
  • Clear skies
Temperature
C / 43°F
Dewpoint
-1°C / 30°F
Humidity
61%
Altimeter
29.97" Hg
Pressure
1014.92 hPa
Previous

38 mins ago

KHLX 030755Z AUTO 31007G15KT 290V350 10SM CLR 06/M01 A2996 RMK AO2 T00611010
Observed
Apr-3 @ 07:55 UTC
Wind
  • 310° at 7 KTS
  • Gusting to 15 KTS
Visibility
Flight Rules
VFR
Cloud Levels
  • Clear skies
Temperature
C / 43°F
Dewpoint
-1°C / 30°F
Humidity
61%
Altimeter
29.96" Hg
Pressure
1014.52 hPa
Previous

58 mins ago

KHLX 030735Z AUTO 31009G16KT 10SM CLR 07/M01 A2996 RMK AO2 T00651012
Observed
Apr-3 @ 07:35 UTC
Wind
  • 310° at 9 KTS
  • Gusting to 16 KTS
Visibility
Flight Rules
VFR
Cloud Levels
  • Clear skies
Temperature
C / 43°F
Dewpoint
-1°C / 30°F
Humidity
61%
Altimeter
29.96" Hg
Pressure
1014.52 hPa